sensor_id;sensor_type;location;lat;lon;timestamp;temperature;humidity
78522;SHT31;67819;51.972;5.678;2023-09-12T00:01:34;18.1;90.3
78522;SHT31;67819;51.972;5.678;2023-09-12T00:04:03;18.1;91.0
78522;SHT31;67819;51.972;5.678;2023-09-12T00:06:31;18.1;91.2
78522;SHT31;67819;51.972;5.678;2023-09-12T00:09:00;18.1;91.1
78522;SHT31;67819;51.972;5.678;2023-09-12T00:11:32;18.1;91.2
78522;SHT31;67819;51.972;5.678;2023-09-12T00:14:00;18.1;91.5
78522;SHT31;67819;51.972;5.678;2023-09-12T00:16:29;18.0;91.4
78522;SHT31;67819;51.972;5.678;2023-09-12T00:18:58;18.0;91.8
78522;SHT31;67819;51.972;5.678;2023-09-12T00:21:26;18.0;91.8
78522;SHT31;67819;51.972;5.678;2023-09-12T00:23:55;18.0;91.7
78522;SHT31;67819;51.972;5.678;2023-09-12T00:26:23;18.0;91.8
78522;SHT31;67819;51.972;5.678;2023-09-12T00:28:52;18.0;92.0
78522;SHT31;67819;51.972;5.678;2023-09-12T00:31:20;18.0;92.2
78522;SHT31;67819;51.972;5.678;2023-09-12T00:33:49;18.0;92.1
78522;SHT31;67819;51.972;5.678;2023-09-12T00:36:17;18.0;92.2
78522;SHT31;67819;51.972;5.678;2023-09-12T00:38:46;18.0;92.3
78522;SHT31;67819;51.972;5.678;2023-09-12T00:41:14;18.0;92.3
78522;SHT31;67819;51.972;5.678;2023-09-12T00:43:43;18.0;92.4
78522;SHT31;67819;51.972;5.678;2023-09-12T00:46:13;18.1;92.5
78522;SHT31;67819;51.972;5.678;2023-09-12T00:48:47;18.1;92.6
78522;SHT31;67819;51.972;5.678;2023-09-12T00:51:19;18.1;92.6
78522;SHT31;67819;51.972;5.678;2023-09-12T00:53:49;18.1;92.6
78522;SHT31;67819;51.972;5.678;2023-09-12T00:56:20;18.2;92.6
78522;SHT31;67819;51.972;5.678;2023-09-12T00:58:49;18.2;92.7
78522;SHT31;67819;51.972;5.678;2023-09-12T01:01:19;18.2;92.7
78522;SHT31;67819;51.972;5.678;2023-09-12T01:03:49;18.3;92.6
78522;SHT31;67819;51.972;5.678;2023-09-12T01:06:19;18.3;92.6
78522;SHT31;67819;51.972;5.678;2023-09-12T01:08:50;18.3;92.4
78522;SHT31;67819;51.972;5.678;2023-09-12T01:11:21;18.3;92.4
78522;SHT31;67819;51.972;5.678;2023-09-12T01:13:50;18.3;92.3
78522;SHT31;67819;51.972;5.678;2023-09-12T01:16:19;18.3;92.3
78522;SHT31;67819;51.972;5.678;2023-09-12T01:18:48;18.3;92.3
78522;SHT31;67819;51.972;5.678;2023-09-12T01:22:55;18.3;92.3
78522;SHT31;67819;51.972;5.678;2023-09-12T01:25:50;18.3;92.5
78522;SHT31;67819;51.972;5.678;2023-09-12T01:28:23;18.3;92.5
78522;SHT31;67819;51.972;5.678;2023-09-12T01:30:56;18.3;92.5
78522;SHT31;67819;51.972;5.678;2023-09-12T01:33:26;18.3;92.3
78522;SHT31;67819;51.972;5.678;2023-09-12T01:35:55;18.3;92.2
78522;SHT31;67819;51.972;5.678;2023-09-12T01:38:23;18.3;92.1
78522;SHT31;67819;51.972;5.678;2023-09-12T01:40:55;18.3;91.9
78522;SHT31;67819;51.972;5.678;2023-09-12T01:43:25;18.3;91.9
78522;SHT31;67819;51.972;5.678;2023-09-12T01:45:56;18.3;91.8
78522;SHT31;67819;51.972;5.678;2023-09-12T01:48:31;18.3;91.8
78522;SHT31;67819;51.972;5.678;2023-09-12T01:51:00;18.2;91.8
78522;SHT31;67819;51.972;5.678;2023-09-12T01:53:31;18.2;91.8
78522;SHT31;67819;51.972;5.678;2023-09-12T01:56:01;18.2;91.8
78522;SHT31;67819;51.972;5.678;2023-09-12T01:58:30;18.2;91.7
78522;SHT31;67819;51.972;5.678;2023-09-12T02:00:59;18.2;91.6
78522;SHT31;67819;51.972;5.678;2023-09-12T02:03:28;18.1;91.6
78522;SHT31;67819;51.972;5.678;2023-09-12T02:05:56;18.1;91.6
78522;SHT31;67819;51.972;5.678;2023-09-12T02:08:25;18.1;91.6
78522;SHT31;67819;51.972;5.678;2023-09-12T02:10:54;18.0;91.6
78522;SHT31;67819;51.972;5.678;2023-09-12T02:13:23;18.0;91.6
78522;SHT31;67819;51.972;5.678;2023-09-12T02:16:01;18.0;91.6
78522;SHT31;67819;51.972;5.678;2023-09-12T02:18:30;18.0;91.7
78522;SHT31;67819;51.972;5.678;2023-09-12T02:21:00;17.9;91.6
78522;SHT31;67819;51.972;5.678;2023-09-12T02:23:28;17.9;91.8
78522;SHT31;67819;51.972;5.678;2023-09-12T02:25:57;17.9;91.8
78522;SHT31;67819;51.972;5.678;2023-09-12T02:28:26;17.8;91.9
78522;SHT31;67819;51.972;5.678;2023-09-12T02:30:54;17.8;92.0
78522;SHT31;67819;51.972;5.678;2023-09-12T02:33:23;17.8;92.2
78522;SHT31;67819;51.972;5.678;2023-09-12T02:35:51;17.7;92.1
78522;SHT31;67819;51.972;5.678;2023-09-12T02:38:20;17.7;92.1
78522;SHT31;67819;51.972;5.678;2023-09-12T02:40:49;17.6;92.1
78522;SHT31;67819;51.972;5.678;2023-09-12T02:43:17;17.6;92.2
78522;SHT31;67819;51.972;5.678;2023-09-12T02:45:46;17.6;92.5
78522;SHT31;67819;51.972;5.678;2023-09-12T02:48:14;17.5;92.5
78522;SHT31;67819;51.972;5.678;2023-09-12T02:50:42;17.5;92.5
78522;SHT31;67819;51.972;5.678;2023-09-12T02:53:11;17.5;92.4
78522;SHT31;67819;51.972;5.678;2023-09-12T02:55:42;17.5;92.5
78522;SHT31;67819;51.972;5.678;2023-09-12T02:58:11;17.5;92.6
78522;SHT31;67819;51.972;5.678;2023-09-12T03:00:40;17.4;92.6
78522;SHT31;67819;51.972;5.678;2023-09-12T03:03:08;17.4;92.5
78522;SHT31;67819;51.972;5.678;2023-09-12T03:05:37;17.4;92.6
78522;SHT31;67819;51.972;5.678;2023-09-12T03:08:06;17.4;92.7
78522;SHT31;67819;51.972;5.678;2023-09-12T03:10:34;17.4;92.8
78522;SHT31;67819;51.972;5.678;2023-09-12T03:13:03;17.4;92.8
78522;SHT31;67819;51.972;5.678;2023-09-12T03:15:35;17.4;92.9
78522;SHT31;67819;51.972;5.678;2023-09-12T03:18:04;17.4;92.9
78522;SHT31;67819;51.972;5.678;2023-09-12T03:20:33;17.4;93.0
78522;SHT31;67819;51.972;5.678;2023-09-12T03:23:05;17.4;93.1
78522;SHT31;67819;51.972;5.678;2023-09-12T03:25:37;17.3;92.9
78522;SHT31;67819;51.972;5.678;2023-09-12T03:28:06;17.3;92.7
78522;SHT31;67819;51.972;5.678;2023-09-12T03:30:36;17.3;92.6
78522;SHT31;67819;51.972;5.678;2023-09-12T03:33:06;17.3;92.6
78522;SHT31;67819;51.972;5.678;2023-09-12T03:35:34;17.3;92.6
78522;SHT31;67819;51.972;5.678;2023-09-12T03:38:03;17.3;92.6
78522;SHT31;67819;51.972;5.678;2023-09-12T03:40:33;17.3;92.7
78522;SHT31;67819;51.972;5.678;2023-09-12T03:43:01;17.3;92.7
78522;SHT31;67819;51.972;5.678;2023-09-12T03:45:31;17.3;92.6
78522;SHT31;67819;51.972;5.678;2023-09-12T03:48:00;17.3;92.6
78522;SHT31;67819;51.972;5.678;2023-09-12T03:50:29;17.3;92.6
78522;SHT31;67819;51.972;5.678;2023-09-12T03:52:57;17.2;92.7
78522;SHT31;67819;51.972;5.678;2023-09-12T03:55:27;17.2;92.9
78522;SHT31;67819;51.972;5.678;2023-09-12T03:57:56;17.3;93.0
78522;SHT31;67819;51.972;5.678;2023-09-12T04:00:24;17.3;93.3
78522;SHT31;67819;51.972;5.678;2023-09-12T04:02:53;17.3;93.3
78522;SHT31;67819;51.972;5.678;2023-09-12T04:05:21;17.3;93.3
78522;SHT31;67819;51.972;5.678;2023-09-12T04:07:50;17.4;93.3
78522;SHT31;67819;51.972;5.678;2023-09-12T04:10:20;17.4;93.1
78522;SHT31;67819;51.972;5.678;2023-09-12T04:12:49;17.4;93.1
78522;SHT31;67819;51.972;5.678;2023-09-12T04:15:17;17.4;93.1
78522;SHT31;67819;51.972;5.678;2023-09-12T04:17:46;17.4;93.0
78522;SHT31;67819;51.972;5.678;2023-09-12T04:20:15;17.4;92.9
78522;SHT31;67819;51.972;5.678;2023-09-12T04:22:43;17.4;92.9
78522;SHT31;67819;51.972;5.678;2023-09-12T04:25:12;17.4;92.8
78522;SHT31;67819;51.972;5.678;2023-09-12T04:27:41;17.4;92.8
78522;SHT31;67819;51.972;5.678;2023-09-12T04:30:11;17.4;92.7
78522;SHT31;67819;51.972;5.678;2023-09-12T04:32:39;17.4;92.7
78522;SHT31;67819;51.972;5.678;2023-09-12T04:35:08;17.4;92.7
78522;SHT31;67819;51.972;5.678;2023-09-12T04:37:37;17.4;92.7
78522;SHT31;67819;51.972;5.678;2023-09-12T04:40:06;17.4;92.7
78522;SHT31;67819;51.972;5.678;2023-09-12T04:42:35;17.4;92.6
78522;SHT31;67819;51.972;5.678;2023-09-12T04:45:04;17.4;92.6
78522;SHT31;67819;51.972;5.678;2023-09-12T04:47:33;17.4;92.6
78522;SHT31;67819;51.972;5.678;2023-09-12T04:50:01;17.4;92.6
78522;SHT31;67819;51.972;5.678;2023-09-12T04:52:30;17.4;92.6
78522;SHT31;67819;51.972;5.678;2023-09-12T04:54:59;17.4;92.6
78522;SHT31;67819;51.972;5.678;2023-09-12T04:57:29;17.4;92.7
78522;SHT31;67819;51.972;5.678;2023-09-12T04:59:59;17.5;92.9
78522;SHT31;67819;51.972;5.678;2023-09-12T05:02:29;17.5;92.9
78522;SHT31;67819;51.972;5.678;2023-09-12T05:04:58;17.5;93.0
78522;SHT31;67819;51.972;5.678;2023-09-12T05:07:27;17.5;93.2
78522;SHT31;67819;51.972;5.678;2023-09-12T05:09:55;17.6;93.3
78522;SHT31;67819;51.972;5.678;2023-09-12T05:12:24;17.6;93.3
78522;SHT31;67819;51.972;5.678;2023-09-12T05:14:53;17.6;93.4
78522;SHT31;67819;51.972;5.678;2023-09-12T05:17:21;17.7;93.4
78522;SHT31;67819;51.972;5.678;2023-09-12T05:19:50;17.7;93.3
78522;SHT31;67819;51.972;5.678;2023-09-12T05:22:19;17.7;93.3
78522;SHT31;67819;51.972;5.678;2023-09-12T05:24:50;17.8;93.3
78522;SHT31;67819;51.972;5.678;2023-09-12T05:27:18;17.8;93.4
78522;SHT31;67819;51.972;5.678;2023-09-12T05:29:47;17.8;93.4
78522;SHT31;67819;51.972;5.678;2023-09-12T05:32:16;17.8;93.5
78522;SHT31;67819;51.972;5.678;2023-09-12T05:34:44;17.9;93.6
78522;SHT31;67819;51.972;5.678;2023-09-12T05:37:16;17.9;93.7
78522;SHT31;67819;51.972;5.678;2023-09-12T05:39:45;17.9;93.5
78522;SHT31;67819;51.972;5.678;2023-09-12T05:42:14;18.0;93.5
78522;SHT31;67819;51.972;5.678;2023-09-12T05:44:48;18.0;93.5
78522;SHT31;67819;51.972;5.678;2023-09-12T05:47:20;18.0;93.5
78522;SHT31;67819;51.972;5.678;2023-09-12T05:49:49;18.0;93.5
78522;SHT31;67819;51.972;5.678;2023-09-12T05:52:17;18.0;93.4
78522;SHT31;67819;51.972;5.678;2023-09-12T05:54:46;18.1;93.4
78522;SHT31;67819;51.972;5.678;2023-09-12T05:57:15;18.1;93.4
78522;SHT31;67819;51.972;5.678;2023-09-12T05:59:43;18.1;93.4
78522;SHT31;67819;51.972;5.678;2023-09-12T06:02:12;18.1;93.4
78522;SHT31;67819;51.972;5.678;2023-09-12T06:04:40;18.2;93.3
78522;SHT31;67819;51.972;5.678;2023-09-12T06:07:09;18.2;93.3
78522;SHT31;67819;51.972;5.678;2023-09-12T06:09:38;18.2;93.2
78522;SHT31;67819;51.972;5.678;2023-09-12T06:12:07;18.2;93.2
78522;SHT31;67819;51.972;5.678;2023-09-12T06:14:35;18.2;93.2
78522;SHT31;67819;51.972;5.678;2023-09-12T06:17:04;18.2;93.3
78522;SHT31;67819;51.972;5.678;2023-09-12T06:19:33;18.2;93.3
78522;SHT31;67819;51.972;5.678;2023-09-12T06:22:01;18.3;93.4
78522;SHT31;67819;51.972;5.678;2023-09-12T06:24:32;18.3;93.5
78522;SHT31;67819;51.972;5.678;2023-09-12T06:27:00;18.3;93.6
78522;SHT31;67819;51.972;5.678;2023-09-12T06:29:29;18.3;93.6
78522;SHT31;67819;51.972;5.678;2023-09-12T06:31:57;18.3;93.6
78522;SHT31;67819;51.972;5.678;2023-09-12T06:34:26;18.4;93.5
78522;SHT31;67819;51.972;5.678;2023-09-12T06:36:55;18.4;93.6
78522;SHT31;67819;51.972;5.678;2023-09-12T06:39:23;18.4;93.6
78522;SHT31;67819;51.972;5.678;2023-09-12T06:41:52;18.5;93.5
78522;SHT31;67819;51.972;5.678;2023-09-12T06:44:21;18.5;93.6
78522;SHT31;67819;51.972;5.678;2023-09-12T06:46:49;18.5;93.5
78522;SHT31;67819;51.972;5.678;2023-09-12T06:49:18;18.6;93.4
78522;SHT31;67819;51.972;5.678;2023-09-12T06:51:46;18.6;93.3
78522;SHT31;67819;51.972;5.678;2023-09-12T06:54:15;18.6;93.3
78522;SHT31;67819;51.972;5.678;2023-09-12T06:56:43;18.7;93.2
78522;SHT31;67819;51.972;5.678;2023-09-12T06:59:14;18.7;93.1
78522;SHT31;67819;51.972;5.678;2023-09-12T07:01:42;18.7;93.1
78522;SHT31;67819;51.972;5.678;2023-09-12T07:04:11;18.8;93.0
78522;SHT31;67819;51.972;5.678;2023-09-12T07:06:39;18.8;93.1
78522;SHT31;67819;51.972;5.678;2023-09-12T07:09:10;18.8;93.0
78522;SHT31;67819;51.972;5.678;2023-09-12T07:11:40;18.9;93.0
78522;SHT31;67819;51.972;5.678;2023-09-12T07:14:10;18.9;92.9
78522;SHT31;67819;51.972;5.678;2023-09-12T07:16:38;18.9;92.7
78522;SHT31;67819;51.972;5.678;2023-09-12T07:19:09;18.9;92.7
78522;SHT31;67819;51.972;5.678;2023-09-12T07:21:37;19.0;92.7
78522;SHT31;67819;51.972;5.678;2023-09-12T07:24:06;19.0;92.6
78522;SHT31;67819;51.972;5.678;2023-09-12T07:26:35;19.0;92.6
78522;SHT31;67819;51.972;5.678;2023-09-12T07:29:04;19.1;92.5
78522;SHT31;67819;51.972;5.678;2023-09-12T07:31:33;19.1;92.5
78522;SHT31;67819;51.972;5.678;2023-09-12T07:34:02;19.2;92.4
78522;SHT31;67819;51.972;5.678;2023-09-12T07:36:32;19.2;92.4
78522;SHT31;67819;51.972;5.678;2023-09-12T07:39:01;19.2;92.4
78522;SHT31;67819;51.972;5.678;2023-09-12T07:41:30;19.3;92.3
78522;SHT31;67819;51.972;5.678;2023-09-12T07:43:58;19.3;92.1
78522;SHT31;67819;51.972;5.678;2023-09-12T07:46:31;19.3;91.9
78522;SHT31;67819;51.972;5.678;2023-09-12T07:49:01;19.4;91.8
78522;SHT31;67819;51.972;5.678;2023-09-12T07:51:30;19.4;91.8
78522;SHT31;67819;51.972;5.678;2023-09-12T07:53:58;19.4;91.7
78522;SHT31;67819;51.972;5.678;2023-09-12T07:56:27;19.4;91.5
78522;SHT31;67819;51.972;5.678;2023-09-12T07:58:57;19.4;91.3
78522;SHT31;67819;51.972;5.678;2023-09-12T08:01:26;19.4;91.1
78522;SHT31;67819;51.972;5.678;2023-09-12T08:03:55;19.3;91.2
78522;SHT31;67819;51.972;5.678;2023-09-12T08:06:24;19.3;91.3
78522;SHT31;67819;51.972;5.678;2023-09-12T08:08:53;19.4;91.5
78522;SHT31;67819;51.972;5.678;2023-09-12T08:11:21;19.4;91.8
78522;SHT31;67819;51.972;5.678;2023-09-12T08:13:50;19.4;91.8
78522;SHT31;67819;51.972;5.678;2023-09-12T08:16:20;19.4;91.6
78522;SHT31;67819;51.972;5.678;2023-09-12T08:18:49;19.4;91.5
78522;SHT31;67819;51.972;5.678;2023-09-12T08:21:18;19.5;91.5
78522;SHT31;67819;51.972;5.678;2023-09-12T08:23:46;19.5;91.5
78522;SHT31;67819;51.972;5.678;2023-09-12T08:26:15;19.5;91.5
78522;SHT31;67819;51.972;5.678;2023-09-12T08:28:44;19.5;91.2
78522;SHT31;67819;51.972;5.678;2023-09-12T08:31:12;19.5;91.0
78522;SHT31;67819;51.972;5.678;2023-09-12T08:33:43;19.5;90.8
78522;SHT31;67819;51.972;5.678;2023-09-12T08:36:11;19.5;90.9
78522;SHT31;67819;51.972;5.678;2023-09-12T08:38:40;19.5;90.9
78522;SHT31;67819;51.972;5.678;2023-09-12T08:41:08;19.5;90.7
78522;SHT31;67819;51.972;5.678;2023-09-12T08:43:37;19.5;90.4
78522;SHT31;67819;51.972;5.678;2023-09-12T08:46:06;19.5;90.4
78522;SHT31;67819;51.972;5.678;2023-09-12T08:48:35;19.5;90.4
78522;SHT31;67819;51.972;5.678;2023-09-12T08:51:07;19.5;90.2
78522;SHT31;67819;51.972;5.678;2023-09-12T08:53:38;19.5;90.3
78522;SHT31;67819;51.972;5.678;2023-09-12T08:56:07;19.5;90.5
78522;SHT31;67819;51.972;5.678;2023-09-12T08:58:37;19.5;90.5
78522;SHT31;67819;51.972;5.678;2023-09-12T09:01:08;19.5;90.6
78522;SHT31;67819;51.972;5.678;2023-09-12T09:03:39;19.5;90.8
78522;SHT31;67819;51.972;5.678;2023-09-12T09:06:10;19.6;90.9
78522;SHT31;67819;51.972;5.678;2023-09-12T09:08:42;19.6;90.9
78522;SHT31;67819;51.972;5.678;2023-09-12T09:11:11;19.7;90.5
78522;SHT31;67819;51.972;5.678;2023-09-12T09:13:39;19.7;90.3
78522;SHT31;67819;51.972;5.678;2023-09-12T09:16:12;19.8;90.0
78522;SHT31;67819;51.972;5.678;2023-09-12T09:18:54;19.8;89.7
78522;SHT31;67819;51.972;5.678;2023-09-12T09:21:25;19.8;89.3
78522;SHT31;67819;51.972;5.678;2023-09-12T09:23:59;19.9;89.1
78522;SHT31;67819;51.972;5.678;2023-09-12T09:26:42;19.9;89.0
78522;SHT31;67819;51.972;5.678;2023-09-12T09:29:14;20.0;89.0
78522;SHT31;67819;51.972;5.678;2023-09-12T09:31:45;20.0;88.7
78522;SHT31;67819;51.972;5.678;2023-09-12T09:34:15;20.1;88.6
78522;SHT31;67819;51.972;5.678;2023-09-12T09:36:46;20.1;88.2
78522;SHT31;67819;51.972;5.678;2023-09-12T09:39:16;20.2;88.1
78522;SHT31;67819;51.972;5.678;2023-09-12T09:41:47;20.2;87.9
78522;SHT31;67819;51.972;5.678;2023-09-12T09:44:17;20.3;87.5
78522;SHT31;67819;51.972;5.678;2023-09-12T09:46:46;20.3;87.4
78522;SHT31;67819;51.972;5.678;2023-09-12T09:49:19;20.3;87.4
78522;SHT31;67819;51.972;5.678;2023-09-12T09:51:48;20.4;87.2
78522;SHT31;67819;51.972;5.678;2023-09-12T09:54:17;20.5;86.9
78522;SHT31;67819;51.972;5.678;2023-09-12T09:56:50;20.5;86.4
78522;SHT31;67819;51.972;5.678;2023-09-12T09:59:22;20.6;86.0
78522;SHT31;67819;51.972;5.678;2023-09-12T10:01:55;20.6;85.9
78522;SHT31;67819;51.972;5.678;2023-09-12T10:04:27;20.7;85.5
78522;SHT31;67819;51.972;5.678;2023-09-12T10:06:57;20.8;85.0
78522;SHT31;67819;51.972;5.678;2023-09-12T10:09:28;20.9;85.1
78522;SHT31;67819;51.972;5.678;2023-09-12T10:11:58;20.9;84.6
78522;SHT31;67819;51.972;5.678;2023-09-12T10:14:29;21.0;84.4
78522;SHT31;67819;51.972;5.678;2023-09-12T10:17:02;21.1;84.5
78522;SHT31;67819;51.972;5.678;2023-09-12T10:19:37;21.2;84.3
78522;SHT31;67819;51.972;5.678;2023-09-12T10:22:12;21.2;83.8
78522;SHT31;67819;51.972;5.678;2023-09-12T10:24:44;21.3;83.4
78522;SHT31;67819;51.972;5.678;2023-09-12T10:27:15;21.4;83.0
78522;SHT31;67819;51.972;5.678;2023-09-12T10:29:44;21.5;82.8
78522;SHT31;67819;51.972;5.678;2023-09-12T10:32:17;21.5;82.7
78522;SHT31;67819;51.972;5.678;2023-09-12T10:34:48;21.6;82.7
78522;SHT31;67819;51.972;5.678;2023-09-12T10:37:19;21.7;82.4
78522;SHT31;67819;51.972;5.678;2023-09-12T10:39:53;21.8;82.3
78522;SHT31;67819;51.972;5.678;2023-09-12T10:42:24;21.9;82.1
78522;SHT31;67819;51.972;5.678;2023-09-12T10:44:57;22.0;82.0
78522;SHT31;67819;51.972;5.678;2023-09-12T10:47:29;22.1;81.9
78522;SHT31;67819;51.972;5.678;2023-09-12T10:49:58;22.2;81.5
78522;SHT31;67819;51.972;5.678;2023-09-12T10:52:27;22.3;81.5
78522;SHT31;67819;51.972;5.678;2023-09-12T10:54:56;22.4;81.4
78522;SHT31;67819;51.972;5.678;2023-09-12T10:57:26;22.5;80.8
78522;SHT31;67819;51.972;5.678;2023-09-12T11:00:12;22.6;80.5
78522;SHT31;67819;51.972;5.678;2023-09-12T11:02:41;22.7;80.2
78522;SHT31;67819;51.972;5.678;2023-09-12T11:05:37;22.8;79.8
78522;SHT31;67819;51.972;5.678;2023-09-12T11:08:11;22.9;79.0
78522;SHT31;67819;51.972;5.678;2023-09-12T11:10:39;23.0;78.7
78522;SHT31;67819;51.972;5.678;2023-09-12T11:13:18;23.0;77.8
78522;SHT31;67819;51.972;5.678;2023-09-12T11:16:12;23.1;77.7
78522;SHT31;67819;51.972;5.678;2023-09-12T11:19:18;23.1;77.7
78522;SHT31;67819;51.972;5.678;2023-09-12T11:21:52;23.2;77.6
78522;SHT31;67819;51.972;5.678;2023-09-12T11:24:22;23.2;77.2
78522;SHT31;67819;51.972;5.678;2023-09-12T11:26:55;23.3;76.8
78522;SHT31;67819;51.972;5.678;2023-09-12T11:29:26;23.3;76.8
78522;SHT31;67819;51.972;5.678;2023-09-12T11:31:57;23.4;76.9
78522;SHT31;67819;51.972;5.678;2023-09-12T11:34:27;23.5;76.8
78522;SHT31;67819;51.972;5.678;2023-09-12T11:36:58;23.6;76.9
78522;SHT31;67819;51.972;5.678;2023-09-12T11:39:31;23.7;77.0
78522;SHT31;67819;51.972;5.678;2023-09-12T11:42:01;23.8;76.1
78522;SHT31;67819;51.972;5.678;2023-09-12T11:44:31;23.8;75.3
78522;SHT31;67819;51.972;5.678;2023-09-12T11:47:01;23.8;74.9
78522;SHT31;67819;51.972;5.678;2023-09-12T11:49:37;23.8;74.8
78522;SHT31;67819;51.972;5.678;2023-09-12T11:52:08;23.9;74.2
78522;SHT31;67819;51.972;5.678;2023-09-12T11:54:40;23.8;73.6
78522;SHT31;67819;51.972;5.678;2023-09-12T11:57:10;23.8;73.5
78522;SHT31;67819;51.972;5.678;2023-09-12T11:59:42;23.8;72.9
78522;SHT31;67819;51.972;5.678;2023-09-12T12:02:11;23.8;72.8
78522;SHT31;67819;51.972;5.678;2023-09-12T12:04:41;23.8;72.7
78522;SHT31;67819;51.972;5.678;2023-09-12T12:07:10;23.7;73.1
78522;SHT31;67819;51.972;5.678;2023-09-12T12:09:39;23.8;73.3
78522;SHT31;67819;51.972;5.678;2023-09-12T12:12:13;23.8;73.3
78522;SHT31;67819;51.972;5.678;2023-09-12T12:14:42;23.9;73.6
78522;SHT31;67819;51.972;5.678;2023-09-12T12:17:12;24.0;73.1
78522;SHT31;67819;51.972;5.678;2023-09-12T12:19:47;24.0;72.7
78522;SHT31;67819;51.972;5.678;2023-09-12T12:22:16;24.0;72.6
78522;SHT31;67819;51.972;5.678;2023-09-12T12:24:46;24.0;72.2
78522;SHT31;67819;51.972;5.678;2023-09-12T12:27:17;24.0;71.8
78522;SHT31;67819;51.972;5.678;2023-09-12T12:29:45;24.0;71.9
78522;SHT31;67819;51.972;5.678;2023-09-12T12:32:15;24.0;72.3
78522;SHT31;67819;51.972;5.678;2023-09-12T12:34:47;24.1;71.7
78522;SHT31;67819;51.972;5.678;2023-09-12T12:37:16;24.1;71.6
78522;SHT31;67819;51.972;5.678;2023-09-12T12:39:44;24.2;71.8
78522;SHT31;67819;51.972;5.678;2023-09-12T12:42:13;24.2;71.9
78522;SHT31;67819;51.972;5.678;2023-09-12T12:44:42;24.3;72.1
78522;SHT31;67819;51.972;5.678;2023-09-12T12:47:11;24.4;71.5
78522;SHT31;67819;51.972;5.678;2023-09-12T12:49:40;24.4;70.5
78522;SHT31;67819;51.972;5.678;2023-09-12T12:52:11;24.5;70.3
78522;SHT31;67819;51.972;5.678;2023-09-12T12:54:42;24.5;70.1
78522;SHT31;67819;51.972;5.678;2023-09-12T12:57:12;24.5;69.8
78522;SHT31;67819;51.972;5.678;2023-09-12T12:59:44;24.6;70.2
78522;SHT31;67819;51.972;5.678;2023-09-12T13:02:13;24.6;70.5
78522;SHT31;67819;51.972;5.678;2023-09-12T13:04:43;24.8;70.8
78522;SHT31;67819;51.972;5.678;2023-09-12T13:07:12;25.0;70.6
78522;SHT31;67819;51.972;5.678;2023-09-12T13:09:40;25.2;69.5
78522;SHT31;67819;51.972;5.678;2023-09-12T13:12:09;25.4;69.4
78522;SHT31;67819;51.972;5.678;2023-09-12T13:14:38;25.6;69.3
78522;SHT31;67819;51.972;5.678;2023-09-12T13:17:06;25.8;68.7
78522;SHT31;67819;51.972;5.678;2023-09-12T13:19:35;26.0;67.9
78522;SHT31;67819;51.972;5.678;2023-09-12T13:22:04;26.2;67.5
78522;SHT31;67819;51.972;5.678;2023-09-12T13:24:32;26.3;67.2
78522;SHT31;67819;51.972;5.678;2023-09-12T13:27:01;26.5;66.3
78522;SHT31;67819;51.972;5.678;2023-09-12T13:29:29;26.6;66.0
78522;SHT31;67819;51.972;5.678;2023-09-12T13:31:58;26.7;64.0
78522;SHT31;67819;51.972;5.678;2023-09-12T13:34:26;26.8;62.9
78522;SHT31;67819;51.972;5.678;2023-09-12T13:36:55;26.8;62.3
78522;SHT31;67819;51.972;5.678;2023-09-12T13:39:24;26.9;62.7
78522;SHT31;67819;51.972;5.678;2023-09-12T13:41:53;26.9;62.5
78522;SHT31;67819;51.972;5.678;2023-09-12T13:44:24;27.0;62.2
78522;SHT31;67819;51.972;5.678;2023-09-12T13:46:53;27.0;62.3
78522;SHT31;67819;51.972;5.678;2023-09-12T13:49:21;27.1;62.8
78522;SHT31;67819;51.972;5.678;2023-09-12T13:51:50;27.2;62.5
78522;SHT31;67819;51.972;5.678;2023-09-12T13:54:18;27.3;61.9
78522;SHT31;67819;51.972;5.678;2023-09-12T13:56:47;27.4;61.2
78522;SHT31;67819;51.972;5.678;2023-09-12T13:59:16;27.4;60.6
78522;SHT31;67819;51.972;5.678;2023-09-12T14:01:46;27.4;60.8
78522;SHT31;67819;51.972;5.678;2023-09-12T14:04:15;27.4;60.6
78522;SHT31;67819;51.972;5.678;2023-09-12T14:06:46;27.3;60.2
78522;SHT31;67819;51.972;5.678;2023-09-12T14:09:14;27.1;60.1
78522;SHT31;67819;51.972;5.678;2023-09-12T14:11:43;27.0;60.2
78522;SHT31;67819;51.972;5.678;2023-09-12T14:14:13;26.8;60.5
78522;SHT31;67819;51.972;5.678;2023-09-12T14:16:43;26.7;61.0
78522;SHT31;67819;51.972;5.678;2023-09-12T14:19:12;26.7;61.6
78522;SHT31;67819;51.972;5.678;2023-09-12T14:21:40;26.6;61.8
78522;SHT31;67819;51.972;5.678;2023-09-12T14:24:12;26.6;62.0
78522;SHT31;67819;51.972;5.678;2023-09-12T14:26:41;26.6;61.9
78522;SHT31;67819;51.972;5.678;2023-09-12T14:29:09;26.6;61.5
78522;SHT31;67819;51.972;5.678;2023-09-12T14:31:38;26.6;61.5
78522;SHT31;67819;51.972;5.678;2023-09-12T14:34:12;26.6;61.2
78522;SHT31;67819;51.972;5.678;2023-09-12T14:36:40;26.6;61.2
78522;SHT31;67819;51.972;5.678;2023-09-12T14:39:09;26.6;60.4
78522;SHT31;67819;51.972;5.678;2023-09-12T14:41:37;26.5;60.4
78522;SHT31;67819;51.972;5.678;2023-09-12T14:44:06;26.4;60.3
78522;SHT31;67819;51.972;5.678;2023-09-12T14:46:35;26.3;60.2
78522;SHT31;67819;51.972;5.678;2023-09-12T14:49:05;26.2;60.4
78522;SHT31;67819;51.972;5.678;2023-09-12T14:51:36;26.1;60.6
78522;SHT31;67819;51.972;5.678;2023-09-12T14:54:05;26.1;60.6
78522;SHT31;67819;51.972;5.678;2023-09-12T14:56:34;26.0;60.7
78522;SHT31;67819;51.972;5.678;2023-09-12T14:59:04;25.9;60.7
78522;SHT31;67819;51.972;5.678;2023-09-12T15:01:33;25.8;60.9
78522;SHT31;67819;51.972;5.678;2023-09-12T15:04:03;25.7;61.3
78522;SHT31;67819;51.972;5.678;2023-09-12T15:06:31;25.6;61.5
78522;SHT31;67819;51.972;5.678;2023-09-12T15:09:00;25.5;61.6
78522;SHT31;67819;51.972;5.678;2023-09-12T15:11:29;25.4;61.6
78522;SHT31;67819;51.972;5.678;2023-09-12T15:13:57;25.3;61.7
78522;SHT31;67819;51.972;5.678;2023-09-12T15:16:26;25.2;62.1
78522;SHT31;67819;51.972;5.678;2023-09-12T15:18:57;25.1;62.3
78522;SHT31;67819;51.972;5.678;2023-09-12T15:21:26;25.0;62.7
78522;SHT31;67819;51.972;5.678;2023-09-12T15:23:54;25.0;62.9
78522;SHT31;67819;51.972;5.678;2023-09-12T15:26:23;24.9;63.2
78522;SHT31;67819;51.972;5.678;2023-09-12T15:28:53;24.9;63.3
78522;SHT31;67819;51.972;5.678;2023-09-12T15:31:22;24.9;63.4
78522;SHT31;67819;51.972;5.678;2023-09-12T15:33:50;24.8;63.4
78522;SHT31;67819;51.972;5.678;2023-09-12T15:36:19;24.8;63.3
78522;SHT31;67819;51.972;5.678;2023-09-12T15:38:47;24.7;63.3
78522;SHT31;67819;51.972;5.678;2023-09-12T15:41:16;24.7;63.3
78522;SHT31;67819;51.972;5.678;2023-09-12T15:43:45;24.6;63.2
78522;SHT31;67819;51.972;5.678;2023-09-12T15:46:14;24.5;63.5
78522;SHT31;67819;51.972;5.678;2023-09-12T15:48:43;24.4;63.6
78522;SHT31;67819;51.972;5.678;2023-09-12T15:51:11;24.3;63.8
78522;SHT31;67819;51.972;5.678;2023-09-12T15:53:40;24.2;64.1
78522;SHT31;67819;51.972;5.678;2023-09-12T15:56:08;24.2;64.4
78522;SHT31;67819;51.972;5.678;2023-09-12T15:58:37;24.1;64.9
78522;SHT31;67819;51.972;5.678;2023-09-12T16:01:05;24.0;65.5
78522;SHT31;67819;51.972;5.678;2023-09-12T16:03:34;24.0;66.0
78522;SHT31;67819;51.972;5.678;2023-09-12T16:06:03;24.0;66.4
78522;SHT31;67819;51.972;5.678;2023-09-12T16:08:31;23.9;66.7
78522;SHT31;67819;51.972;5.678;2023-09-12T16:11:00;23.9;66.8
78522;SHT31;67819;51.972;5.678;2023-09-12T16:13:28;23.9;66.6
78522;SHT31;67819;51.972;5.678;2023-09-12T16:15:57;23.9;66.7
78522;SHT31;67819;51.972;5.678;2023-09-12T16:18:26;23.8;66.6
78522;SHT31;67819;51.972;5.678;2023-09-12T16:20:55;23.8;66.7